Portada
METAR-TAF:

METAR-TAF

Aeroports :

Acajutla, El Salvador

latitud: 13-34N, longitud: 089-50W, altitud: 15 m

Observació

L'informe es va fer fa 11 hores i 19 minuts, a les 22:50 UTC
Vent 2 kt del Sud
Temperatura 30°C
Humitat 75%
Pressió 1010 hPa
Visibilitat 10 km o més
Cel ennuvolat a una alçada de 2700 ft

METAR: MSAC 152250Z 19002KT 9999 BKN027 30/25 Q1009 A2982

Hora: 04:09 (10:09 UTC)


TAF: manca

Observacions i pronòstics meteorològics de més de 4000 aeroports (METAR i TAF).

Les estacions disponibles són els punts grocs i vermells al mapa.

Posi el ratolí al punt desitjat per veure el nom de l'estació.

Feu clic per veure les observacions i els pronòstics meteorològics.

Per canviar el mapa: feu clic els botons verds amb una creu de color negre per apropar; al botó verd amb un guió per allunyar la imatge; o en les fletxes verdes per a mapes adjacents.


METAR-TAF: